Time;durP1;ratioP1;P1;durP2;ratioP2;P2;SDS_P1;SDS_P2;PMS_P1;PMS_P2;Temp;Humidity;BMP_temperature;BMP_pressure;BME280_temperature;BME280_humidity;BME280_pressure;Samples;Min_cycle;Max_cycle;Signal;HPM_P1;HPM_P2
2024/05/01 00:00:27;;;;;;;;;;;13.00;99.90;;;;;;5048106;28;19969;-73
2024/05/01 00:02:53;;;;;;;;;;;13.00;99.90;;;;;;5041508;28;20437;-74
2024/05/01 00:05:18;;;;;;;;;;;13.00;99.90;;;;;;5050737;28;19913;-74
2024/05/01 00:07:44;;;;;;;;;;;13.00;99.90;;;;;;5039358;28;19935;-74
2024/05/01 00:10:09;;;;;;;;;;;12.90;99.90;;;;;;5051790;28;19921;-75
2024/05/01 00:12:35;;;;;;;;;;;12.90;99.90;;;;;;5033405;28;19920;-74
2024/05/01 00:15:01;;;;;;;;;;;12.80;99.90;;;;;;5050062;28;19927;-75
2024/05/01 00:17:26;;;;;;;;;;;12.80;99.90;;;;;;5036912;28;19920;-74
2024/05/01 00:19:52;;;;;;;;;;;12.80;99.90;;;;;;5045252;28;19935;-74
2024/05/01 00:22:17;;;;;;;;;;;12.70;99.90;;;;;;5039352;28;19921;-74
2024/05/01 00:24:43;;;;;;;;;;;12.70;99.90;;;;;;5045347;28;19973;-74
2024/05/01 00:27:08;;;;;;;;;;;12.60;99.90;;;;;;5036648;28;20435;-74
2024/05/01 00:29:34;;;;;;;;;;;12.60;99.90;;;;;;5049733;28;19924;-75
2024/05/01 00:31:59;;;;;;;;;;;12.50;99.90;;;;;;5034811;28;19927;-74
2024/05/01 00:34:25;;;;;;;;;;;12.50;99.90;;;;;;5049929;28;20395;-74
2024/05/01 00:36:50;;;;;;;;;;;12.50;99.90;;;;;;5049860;28;19921;-74
2024/05/01 00:39:16;;;;;;;;;;;12.50;99.90;;;;;;5037261;28;19931;-74
2024/05/01 00:41:41;;;;;;;;;;;12.50;99.90;;;;;;5051733;28;19966;-75
2024/05/01 00:44:07;;;;;;;;;;;12.50;99.90;;;;;;5032247;28;19920;-74
2024/05/01 00:46:33;;;;;;;;;;;12.50;99.90;;;;;;5050994;28;20226;-74
2024/05/01 00:48:59;;;;;;;;;;;12.40;99.90;;;;;;5036656;28;19913;-75
2024/05/01 00:51:25;;;;;;;;;;;12.40;99.90;;;;;;5045029;28;20365;-75
2024/05/01 00:53:51;;;;;;;;;;;12.40;99.90;;;;;;5038501;28;19974;-75
2024/05/01 00:56:16;;;;;;;;;;;12.40;99.90;;;;;;5050696;28;19960;-73
2024/05/01 00:58:44;;;;;;;;;;;12.40;99.90;;;;;;5034650;28;19936;-74
2024/05/01 01:01:14;;;;;;;;;;;12.40;99.90;;;;;;5051078;28;20379;-74
2024/05/01 01:03:41;;;;;;;;;;;12.40;99.90;;;;;;5041787;28;19968;-74
2024/05/01 01:06:08;;;;;;;;;;;12.30;99.90;;;;;;5048341;28;19932;-74
2024/05/01 01:08:34;;;;;;;;;;;12.20;99.90;;;;;;5043278;28;20030;-74
2024/05/01 01:11:07;;;;;;;;;;;12.20;99.90;;;;;;5050787;28;19957;-74
2024/05/01 01:13:33;;;;;;;;;;;12.20;99.90;;;;;;5035110;28;19916;-73
2024/05/01 01:15:58;;;;;;;;;;;12.20;99.90;;;;;;5049761;28;20506;-75
2024/05/01 01:18:24;;;;;;;;;;;12.20;99.90;;;;;;5038886;28;20030;-74
2024/05/01 01:20:50;;;;;;;;;;;12.20;99.90;;;;;;5031298;28;19963;-74
2024/05/01 01:23:15;;;;;;;;;;;12.20;99.90;;;;;;5053025;28;20007;-75
2024/05/01 01:25:41;;;;;;;;;;;12.10;99.90;;;;;;5033248;28;19966;-75
2024/05/01 01:28:06;;;;;;;;;;;12.00;99.90;;;;;;5052509;28;20009;-75
2024/05/01 01:30:32;;;;;;;;;;;12.00;99.90;;;;;;5035819;28;19920;-75
2024/05/01 01:32:57;;;;;;;;;;;11.90;99.90;;;;;;5046918;28;19917;-75
2024/05/01 01:35:23;;;;;;;;;;;11.90;99.90;;;;;;5040347;28;19993;-74
2024/05/01 01:37:48;;;;;;;;;;;11.80;99.90;;;;;;5050678;28;20441;-75
2024/05/01 01:40:14;;;;;;;;;;;11.80;99.90;;;;;;5033082;28;20238;-73
2024/05/01 01:42:39;;;;;;;;;;;11.70;99.90;;;;;;5050559;28;19947;-74
2024/05/01 01:45:05;;;;;;;;;;;11.70;99.90;;;;;;5032864;28;19921;-74
2024/05/01 01:47:31;;;;;;;;;;;11.60;99.90;;;;;;5047207;28;20296;-74
2024/05/01 01:49:56;;;;;;;;;;;11.50;99.90;;;;;;5036295;28;19959;-74
2024/05/01 01:52:22;;;;;;;;;;;11.50;99.90;;;;;;5042662;28;19929;-75
2024/05/01 01:54:47;;;;;;;;;;;11.50;99.90;;;;;;5033246;28;20111;-74
2024/05/01 01:57:15;;;;;;;;;;;11.40;99.90;;;;;;5045180;28;19921;-74
2024/05/01 01:59:41;;;;;;;;;;;11.50;99.90;;;;;;5042645;28;20449;-74
2024/05/01 02:02:06;;;;;;;;;;;11.50;99.90;;;;;;5035958;28;20798;-74
2024/05/01 02:04:32;;;;;;;;;;;11.40;99.90;;;;;;5050542;28;20011;-74
2024/05/01 02:06:57;;;;;;;;;;;11.40;99.90;;;;;;5034481;28;19939;-74
2024/05/01 02:09:23;;;;;;;;;;;11.40;99.90;;;;;;5050583;28;20603;-75
2024/05/01 02:11:48;;;;;;;;;;;11.30;99.90;;;;;;5032049;28;19921;-75
2024/05/01 02:14:14;;;;;;;;;;;11.30;99.90;;;;;;5045645;28;20275;-74
2024/05/01 02:16:39;;;;;;;;;;;11.20;99.90;;;;;;5033703;28;20260;-74
2024/05/01 02:19:05;;;;;;;;;;;11.20;99.90;;;;;;5045988;28;19924;-74
2024/05/01 02:21:30;;;;;;;;;;;11.10;99.90;;;;;;5033164;28;19921;-74
2024/05/01 02:23:56;;;;;;;;;;;11.10;99.90;;;;;;5044733;28;19920;-74
2024/05/01 02:26:21;;;;;;;;;;;11.20;99.90;;;;;;5031913;28;19974;-75
2024/05/01 02:28:47;;;;;;;;;;;11.10;99.90;;;;;;5048417;28;19927;-75
2024/05/01 02:31:12;;;;;;;;;;;11.10;99.90;;;;;;5031013;28;19921;-75
2024/05/01 02:33:38;;;;;;;;;;;11.20;99.90;;;;;;5043511;28;20011;-74
2024/05/01 02:36:05;;;;;;;;;;;11.10;99.90;;;;;;5039552;28;20007;-75
2024/05/01 02:38:31;;;;;;;;;;;11.00;99.90;;;;;;5047406;28;19951;-75
2024/05/01 02:40:56;;;;;;;;;;;11.10;99.90;;;;;;5044707;28;20597;-74
2024/05/01 02:43:22;;;;;;;;;;;11.10;99.90;;;;;;5035130;28;19920;-74
2024/05/01 02:45:47;;;;;;;;;;;11.10;99.90;;;;;;5044667;28;20314;-75
2024/05/01 02:48:13;;;;;;;;;;;11.00;99.90;;;;;;5037436;28;19982;-75
2024/05/01 02:50:38;;;;;;;;;;;11.00;99.90;;;;;;5051282;28;20020;-75
2024/05/01 02:53:04;;;;;;;;;;;10.90;99.90;;;;;;5031288;28;20011;-74
2024/05/01 02:55:30;;;;;;;;;;;10.80;99.90;;;;;;5056370;28;20007;-74
2024/05/01 02:57:55;;;;;;;;;;;10.70;99.90;;;;;;5045595;28;19920;-74
2024/05/01 03:00:21;;;;;;;;;;;10.70;99.90;;;;;;5041390;28;20291;-74
2024/05/01 03:02:47;;;;;;;;;;;10.60;99.90;;;;;;5041971;28;20426;-75
2024/05/01 03:05:12;;;;;;;;;;;10.40;99.90;;;;;;5053072;28;19956;-73
2024/05/01 03:07:38;;;;;;;;;;;10.40;99.90;;;;;;5035076;28;20283;-74
2024/05/01 03:10:04;;;;;;;;;;;10.30;99.90;;;;;;5055504;28;20007;-76
2024/05/01 03:12:30;;;;;;;;;;;10.20;99.90;;;;;;5032914;28;19921;-73
2024/05/01 03:14:55;;;;;;;;;;;10.10;99.90;;;;;;5055544;28;19920;-74
2024/05/01 03:17:21;;;;;;;;;;;10.20;99.90;;;;;;5047047;28;20292;-75
2024/05/01 03:19:46;;;;;;;;;;;10.10;99.90;;;;;;5042552;28;20351;-74
2024/05/01 03:22:12;;;;;;;;;;;10.00;99.90;;;;;;5054963;28;20284;-74
2024/05/01 03:24:38;;;;;;;;;;;10.00;99.90;;;;;;5039862;28;20384;-74
2024/05/01 03:27:03;;;;;;;;;;;10.00;99.90;;;;;;5047740;28;19921;-74
2024/05/01 03:29:29;;;;;;;;;;;10.10;99.90;;;;;;5040293;28;19920;-74
2024/05/01 03:31:55;;;;;;;;;;;10.00;99.90;;;;;;5051512;28;19924;-75
2024/05/01 03:34:21;;;;;;;;;;;9.90;99.90;;;;;;5036335;28;19952;-75
2024/05/01 03:36:47;;;;;;;;;;;9.80;99.90;;;;;;5054949;28;20459;-75
2024/05/01 03:39:12;;;;;;;;;;;9.90;99.90;;;;;;5038471;28;19920;-74
2024/05/01 03:41:38;;;;;;;;;;;9.90;99.90;;;;;;5047037;28;19927;-75
2024/05/01 03:44:04;;;;;;;;;;;9.80;99.90;;;;;;5036416;28;21266;-75
2024/05/01 03:46:33;;;;;;;;;;;9.80;99.90;;;;;;5045120;28;20533;-75
2024/05/01 03:48:59;;;;;;;;;;;9.90;99.90;;;;;;5043889;28;20038;-75
2024/05/01 03:51:24;;;;;;;;;;;9.80;99.90;;;;;;5054666;28;19973;-75
2024/05/01 03:53:50;;;;;;;;;;;9.80;99.90;;;;;;5035837;28;20085;-75
2024/05/01 03:56:19;;;;;;;;;;;9.90;99.90;;;;;;5049383;28;19916;-75
2024/05/01 03:58:44;;;;;;;;;;;9.90;99.90;;;;;;5043833;28;19924;-75
2024/05/01 04:01:10;;;;;;;;;;;9.80;99.90;;;;;;5047531;28;19966;-74
2024/05/01 04:03:35;;;;;;;;;;;9.90;99.90;;;;;;5039285;28;19970;-75
2024/05/01 04:06:01;;;;;;;;;;;9.80;99.90;;;;;;5033667;28;19921;-75
2024/05/01 04:08:27;;;;;;;;;;;9.70;99.90;;;;;;5050593;28;19928;-73
2024/05/01 04:10:52;;;;;;;;;;;9.60;99.90;;;;;;5036941;28;19978;-76
2024/05/01 04:13:18;;;;;;;;;;;9.60;99.90;;;;;;5038082;28;19927;-73
2024/05/01 04:15:43;;;;;;;;;;;9.40;99.90;;;;;;5038030;28;20053;-75
2024/05/01 04:18:09;;;;;;;;;;;9.50;99.90;;;;;;5053236;28;19923;-75
2024/05/01 04:20:34;;;;;;;;;;;9.60;99.90;;;;;;5039025;28;19929;-75
2024/05/01 04:23:00;;;;;;;;;;;9.50;99.90;;;;;;5050339;28;19912;-75
2024/05/01 04:25:25;;;;;;;;;;;9.60;99.90;;;;;;5041880;28;19948;-75
2024/05/01 04:27:51;;;;;;;;;;;9.60;99.90;;;;;;5047732;28;19912;-74
2024/05/01 04:30:16;;;;;;;;;;;9.50;99.90;;;;;;5037743;28;20757;-75
2024/05/01 04:32:42;;;;;;;;;;;9.60;99.90;;;;;;5046568;28;20357;-75
2024/05/01 04:35:07;;;;;;;;;;;9.60;99.90;;;;;;5040752;28;19920;-75
2024/05/01 04:37:33;;;;;;;;;;;9.50;99.90;;;;;;5054155;28;19924;-75
2024/05/01 04:39:59;;;;;;;;;;;9.50;99.90;;;;;;5045908;28;19921;-74
2024/05/01 04:42:24;;;;;;;;;;;9.50;99.90;;;;;;5040552;28;20187;-75
2024/05/01 04:44:50;;;;;;;;;;;9.40;99.90;;;;;;5052552;28;21108;-74
2024/05/01 04:47:15;;;;;;;;;;;9.40;99.90;;;;;;5038667;28;19920;-75
2024/05/01 04:49:41;;;;;;;;;;;9.30;99.90;;;;;;5056695;28;19920;-75
2024/05/01 04:52:07;;;;;;;;;;;9.30;99.90;;;;;;5040773;28;21378;-75
2024/05/01 04:54:32;;;;;;;;;;;9.30;99.90;;;;;;5050102;28;19921;-74
2024/05/01 04:56:58;;;;;;;;;;;9.30;99.90;;;;;;5037924;28;19986;-74
2024/05/01 04:59:23;;;;;;;;;;;9.40;99.90;;;;;;5049071;28;19978;-75
2024/05/01 05:01:49;;;;;;;;;;;9.30;99.90;;;;;;5033547;28;19928;-75
2024/05/01 05:04:14;;;;;;;;;;;9.30;99.90;;;;;;5051906;28;20338;-75
2024/05/01 05:06:40;;;;;;;;;;;9.30;99.90;;;;;;5027424;28;20013;-75
2024/05/01 05:09:06;;;;;;;;;;;9.30;99.90;;;;;;5040944;28;20001;-75
2024/05/01 05:11:37;;;;;;;;;;;9.20;99.90;;;;;;5037717;28;20015;-75
2024/05/01 05:14:03;;;;;;;;;;;9.30;99.90;;;;;;5044896;28;19927;-75
2024/05/01 05:16:28;;;;;;;;;;;9.30;99.90;;;;;;5025801;28;19920;-74
2024/05/01 05:18:54;;;;;;;;;;;9.30;99.90;;;;;;5047525;28;19928;-73
2024/05/01 05:21:19;;;;;;;;;;;9.30;99.90;;;;;;5046898;28;19912;-74
2024/05/01 05:23:45;;;;;;;;;;;9.40;99.90;;;;;;5040200;28;19924;-74
2024/05/01 05:26:11;;;;;;;;;;;9.50;99.90;;;;;;5048140;28;20742;-74
2024/05/01 05:28:39;;;;;;;;;;;9.50;99.90;;;;;;5037843;28;19913;-74
2024/05/01 05:31:04;;;;;;;;;;;9.50;99.90;;;;;;5049244;28;19931;-74
2024/05/01 05:33:30;;;;;;;;;;;9.50;99.90;;;;;;5035864;28;19916;-74
2024/05/01 05:35:55;;;;;;;;;;;9.50;99.90;;;;;;5050495;28;19928;-75
2024/05/01 05:38:21;;;;;;;;;;;9.50;99.90;;;;;;5034903;28;19927;-75
2024/05/01 05:40:47;;;;;;;;;;;9.60;99.90;;;;;;5045761;28;19920;-74
2024/05/01 05:43:12;;;;;;;;;;;9.60;99.90;;;;;;5038529;28;19966;-75
2024/05/01 05:45:37;;;;;;;;;;;9.70;99.90;;;;;;5048566;28;19939;-75
2024/05/01 05:48:03;;;;;;;;;;;9.70;99.90;;;;;;5034420;28;20289;-75
2024/05/01 05:50:29;;;;;;;;;;;9.80;99.90;;;;;;5053357;28;19924;-75
2024/05/01 05:52:54;;;;;;;;;;;10.00;99.90;;;;;;5034596;28;19917;-75
2024/05/01 05:55:20;;;;;;;;;;;10.30;99.90;;;;;;5051436;28;20003;-75
2024/05/01 05:57:46;;;;;;;;;;;10.30;99.90;;;;;;5039722;28;19965;-75
2024/05/01 06:00:11;;;;;;;;;;;10.40;99.90;;;;;;5046459;28;19921;-73
2024/05/01 06:02:37;;;;;;;;;;;10.40;99.90;;;;;;5041707;28;19964;-75
2024/05/01 06:05:02;;;;;;;;;;;10.40;99.90;;;;;;5036307;28;19942;-75
2024/05/01 06:07:28;;;;;;;;;;;10.40;99.90;;;;;;5042922;28;19936;-75
2024/05/01 06:09:53;;;;;;;;;;;10.50;99.90;;;;;;5028423;28;20329;-76
2024/05/01 06:12:19;;;;;;;;;;;10.50;99.90;;;;;;5043538;28;20888;-74
2024/05/01 06:14:44;;;;;;;;;;;10.40;99.90;;;;;;5038575;28;20301;-74
2024/05/01 06:17:10;;;;;;;;;;;10.40;99.90;;;;;;5052270;28;20383;-73
2024/05/01 06:19:36;;;;;;;;;;;10.40;99.90;;;;;;5033128;28;19987;-74
2024/05/01 06:22:01;;;;;;;;;;;10.50;99.90;;;;;;5050419;28;19909;-73
2024/05/01 06:24:27;;;;;;;;;;;10.80;99.90;;;;;;5038144;28;19921;-75
2024/05/01 06:26:52;;;;;;;;;;;10.90;99.90;;;;;;5047348;28;19913;-75
2024/05/01 06:29:18;;;;;;;;;;;10.80;99.90;;;;;;5042156;28;19971;-75
2024/05/01 06:31:43;;;;;;;;;;;10.90;99.90;;;;;;5051727;28;19920;-74
2024/05/01 06:34:09;;;;;;;;;;;10.80;99.90;;;;;;5040661;28;20771;-74
2024/05/01 06:36:37;;;;;;;;;;;11.00;99.90;;;;;;5055677;28;20949;-74
2024/05/01 06:39:02;;;;;;;;;;;11.10;99.90;;;;;;5041178;28;19920;-74
2024/05/01 06:41:28;;;;;;;;;;;11.10;99.90;;;;;;5049677;28;20400;-74
2024/05/01 06:43:53;;;;;;;;;;;11.10;99.90;;;;;;5051239;28;19928;-74
2024/05/01 06:46:21;;;;;;;;;;;11.30;99.90;;;;;;5033720;28;20014;-73
2024/05/01 06:48:47;;;;;;;;;;;11.30;99.90;;;;;;5052382;28;20105;-76
2024/05/01 06:51:13;;;;;;;;;;;11.50;99.90;;;;;;5037195;28;19978;-75
2024/05/01 06:53:39;;;;;;;;;;;11.50;99.90;;;;;;5044660;28;20043;-74
2024/05/01 06:56:05;;;;;;;;;;;11.50;99.90;;;;;;5030026;28;20385;-74
2024/05/01 06:58:31;;;;;;;;;;;11.50;99.90;;;;;;5038793;28;20350;-74
2024/05/01 07:00:57;;;;;;;;;;;11.70;99.90;;;;;;5026425;28;20303;-74
2024/05/01 07:03:23;;;;;;;;;;;11.90;99.90;;;;;;5043028;28;19947;-74
2024/05/01 07:05:48;;;;;;;;;;;12.10;99.90;;;;;;5031985;28;19993;-73
2024/05/01 07:08:14;;;;;;;;;;;12.00;99.90;;;;;;5037455;28;19975;-74
2024/05/01 07:10:39;;;;;;;;;;;12.00;99.90;;;;;;5034292;28;19958;-74
2024/05/01 07:13:05;;;;;;;;;;;12.10;99.90;;;;;;5040822;28;20001;-75
2024/05/01 07:15:30;;;;;;;;;;;12.10;99.90;;;;;;5033064;28;20600;-75
2024/05/01 07:17:56;;;;;;;;;;;12.20;99.90;;;;;;5044865;28;21136;-74
2024/05/01 07:20:22;;;;;;;;;;;12.30;99.90;;;;;;5029940;28;19920;-74
2024/05/01 07:22:48;;;;;;;;;;;12.20;99.90;;;;;;5039492;28;20632;-74
2024/05/01 07:25:13;;;;;;;;;;;12.20;99.90;;;;;;5044453;28;20179;-74
2024/05/01 07:27:39;;;;;;;;;;;12.20;99.90;;;;;;5037917;28;19959;-75
2024/05/01 07:30:05;;;;;;;;;;;12.30;99.90;;;;;;5042236;28;20307;-73
2024/05/01 07:32:30;;;;;;;;;;;12.50;99.90;;;;;;5031800;28;20902;-73
2024/05/01 07:34:56;;;;;;;;;;;12.40;99.90;;;;;;5042255;28;20478;-74
2024/05/01 07:37:22;;;;;;;;;;;12.60;99.90;;;;;;5027106;28;19924;-74
2024/05/01 07:39:47;;;;;;;;;;;12.80;99.90;;;;;;5035055;28;19982;-76
2024/05/01 07:42:13;;;;;;;;;;;12.80;99.90;;;;;;5030529;28;19920;-75
2024/05/01 07:44:38;;;;;;;;;;;12.70;99.90;;;;;;5040276;28;20521;-75
2024/05/01 07:47:04;;;;;;;;;;;12.90;99.90;;;;;;5028732;28;20441;-74
2024/05/01 07:49:29;;;;;;;;;;;13.30;99.90;;;;;;5050902;28;19928;-74
2024/05/01 07:51:55;;;;;;;;;;;13.40;99.90;;;;;;5031845;28;19931;-75
2024/05/01 07:54:20;;;;;;;;;;;13.60;99.90;;;;;;5042706;28;20361;-75
2024/05/01 07:56:46;;;;;;;;;;;13.70;99.90;;;;;;5037189;28;21423;-77
2024/05/01 07:59:11;;;;;;;;;;;13.90;99.90;;;;;;5039148;28;19920;-77
2024/05/01 08:01:37;;;;;;;;;;;14.20;99.90;;;;;;5040997;28;20656;-77
2024/05/01 08:04:03;;;;;;;;;;;14.20;99.90;;;;;;5034903;28;20760;-77
2024/05/01 08:06:28;;;;;;;;;;;14.10;99.90;;;;;;5044931;28;19913;-77
2024/05/01 08:08:54;;;;;;;;;;;14.20;99.90;;;;;;5035470;28;19936;-77
2024/05/01 08:11:19;;;;;;;;;;;14.40;99.90;;;;;;5049507;28;19990;-78
2024/05/01 08:13:45;;;;;;;;;;;14.60;99.90;;;;;;5034468;28;19921;-74
2024/05/01 08:16:10;;;;;;;;;;;14.80;99.90;;;;;;5052737;28;19974;-77
2024/05/01 08:18:36;;;;;;;;;;;14.70;99.90;;;;;;5041359;28;20006;-77
2024/05/01 08:21:01;;;;;;;;;;;14.70;99.90;;;;;;5035146;28;19920;-77
2024/05/01 08:23:27;;;;;;;;;;;15.00;99.90;;;;;;5039311;28;19920;-77
2024/05/01 08:25:52;;;;;;;;;;;14.90;99.90;;;;;;5044811;28;20018;-77
2024/05/01 08:28:18;;;;;;;;;;;14.90;99.90;;;;;;5026666;28;19916;-76
2024/05/01 08:30:43;;;;;;;;;;;15.00;99.90;;;;;;5045264;28;20316;-78
2024/05/01 08:33:09;;;;;;;;;;;15.00;99.90;;;;;;5028363;28;20379;-74
2024/05/01 08:35:34;;;;;;;;;;;14.90;99.90;;;;;;5046532;28;20392;-75
2024/05/01 08:38:00;;;;;;;;;;;14.90;99.90;;;;;;5032821;28;20402;-75
2024/05/01 08:40:27;;;;;;;;;;;14.90;99.90;;;;;;5038016;28;19931;-74
2024/05/01 08:42:53;;;;;;;;;;;15.00;99.90;;;;;;5042146;28;19956;-75
2024/05/01 08:45:19;;;;;;;;;;;15.30;99.90;;;;;;5031563;28;19921;-75
2024/05/01 08:47:46;;;;;;;;;;;15.10;99.90;;;;;;5031982;28;19928;-73
2024/05/01 08:50:12;;;;;;;;;;;15.10;99.90;;;;;;5023051;28;20220;-80
2024/05/01 08:52:39;;;;;;;;;;;16.10;99.90;;;;;;5034599;28;19928;-77
2024/05/01 08:55:05;;;;;;;;;;;16.40;99.90;;;;;;5025246;28;20017;-77
2024/05/01 08:57:32;;;;;;;;;;;16.50;99.90;;;;;;5041920;28;20327;-77
2024/05/01 08:59:58;;;;;;;;;;;16.40;99.90;;;;;;5031696;28;19920;-78
2024/05/01 09:02:24;;;;;;;;;;;16.60;99.90;;;;;;5042305;28;19926;-79
2024/05/01 09:04:52;;;;;;;;;;;16.60;99.90;;;;;;5036465;28;19921;-77
2024/05/01 09:07:18;;;;;;;;;;;16.80;99.90;;;;;;5039070;28;19929;-75
2024/05/01 09:09:43;;;;;;;;;;;16.60;99.90;;;;;;5030334;28;22902;-77
2024/05/01 09:12:32;;;;;;;;;;;16.50;99.90;;;;;;5046770;27;20416;-75
2024/05/01 09:15:14;;;;;;;;;;;16.50;99.90;;;;;;5000947;28;19928;-76
2024/05/01 09:17:39;;;;;;;;;;;16.60;99.90;;;;;;5018742;28;19917;-77
2024/05/01 09:20:13;;;;;;;;;;;16.50;99.90;;;;;;5001770;28;20314;-77
2024/05/01 09:22:55;;;;;;;;;;;16.70;99.90;;;;;;5004522;28;19921;-76
2024/05/01 09:25:21;;;;;;;;;;;16.60;99.90;;;;;;4987234;28;20325;-76
2024/05/01 09:27:47;;;;;;;;;;;16.60;99.90;;;;;;5011318;28;20554;-76
2024/05/01 09:30:12;;;;;;;;;;;16.80;99.90;;;;;;5013076;28;19947;-75
2024/05/01 09:32:38;;;;;;;;;;;16.60;99.90;;;;;;5023248;28;19921;-76
2024/05/01 09:35:04;;;;;;;;;;;16.90;99.90;;;;;;5009247;28;20428;-76
2024/05/01 09:37:30;;;;;;;;;;;16.80;99.90;;;;;;5024641;28;20202;-76
2024/05/01 09:39:58;;;;;;;;;;;17.20;99.90;;;;;;5015178;28;20497;-76
2024/05/01 09:42:27;;;;;;;;;;;17.50;99.90;;;;;;5009429;28;21024;-76
2024/05/01 09:44:55;;;;;;;;;;;17.20;99.90;;;;;;5022298;28;20426;-76
2024/05/01 09:47:21;;;;;;;;;;;17.20;99.90;;;;;;5006702;28;19923;-76
2024/05/01 09:49:48;;;;;;;;;;;17.30;99.90;;;;;;5025847;28;19917;-75
2024/05/01 09:52:13;;;;;;;;;;;17.10;99.90;;;;;;5010772;28;21069;-76
2024/05/01 09:54:39;;;;;;;;;;;17.00;99.90;;;;;;5019643;28;20012;-75
2024/05/01 09:57:05;;;;;;;;;;;16.90;99.90;;;;;;5004449;28;19943;-75
2024/05/01 09:59:31;;;;;;;;;;;16.90;99.90;;;;;;5025531;28;20393;-76
2024/05/01 10:01:57;;;;;;;;;;;17.30;99.90;;;;;;5012090;28;20056;-76
2024/05/01 10:04:23;;;;;;;;;;;17.40;99.90;;;;;;5026618;28;20423;-76
2024/05/01 10:06:50;;;;;;;;;;;17.30;99.90;;;;;;5006019;28;19921;-75
2024/05/01 10:09:22;;;;;;;;;;;17.60;99.90;;;;;;5026620;28;19927;-76
2024/05/01 10:11:48;;;;;;;;;;;17.40;99.90;;;;;;5015294;28;19929;-77
2024/05/01 10:14:14;;;;;;;;;;;17.40;99.90;;;;;;5025668;28;19935;-78
2024/05/01 10:16:41;;;;;;;;;;;17.50;99.90;;;;;;5015580;28;19922;-77
2024/05/01 10:19:06;;;;;;;;;;;17.30;99.90;;;;;;5032494;28;20016;-78
2024/05/01 10:21:32;;;;;;;;;;;16.90;99.90;;;;;;5009722;28;19990;-78
2024/05/01 10:23:59;;;;;;;;;;;16.80;99.90;;;;;;5015572;28;19952;-78
2024/05/01 10:26:34;;;;;;;;;;;16.80;99.90;;;;;;5008684;28;19969;-79
2024/05/01 10:28:59;;;;;;;;;;;16.90;99.90;;;;;;5005948;28;19921;-79
2024/05/01 10:31:29;;;;;;;;;;;17.10;99.90;;;;;;5009843;28;19933;-80
2024/05/01 10:33:56;;;;;;;;;;;17.50;99.90;;;;;;4999573;28;19921;-79
2024/05/01 10:36:26;;;;;;;;;;;17.60;99.90;;;;;;5018046;28;21757;-78
2024/05/01 10:38:54;;;;;;;;;;;17.80;99.90;;;;;;5005692;28;19921;-79
2024/05/01 10:41:19;;;;;;;;;;;17.80;99.90;;;;;;5012040;28;20081;-77
2024/05/01 10:43:51;;;;;;;;;;;18.00;99.90;;;;;;5003815;28;20035;-78
2024/05/01 10:46:17;;;;;;;;;;;17.90;99.90;;;;;;5014171;28;19927;-79
2024/05/01 10:48:42;;;;;;;;;;;17.90;99.90;;;;;;5003382;28;19917;-78
2024/05/01 10:51:08;;;;;;;;;;;17.90;99.90;;;;;;5014664;28;20383;-79
2024/05/01 10:53:34;;;;;;;;;;;18.00;99.90;;;;;;4995935;28;20036;-80
2024/05/01 10:55:59;;;;;;;;;;;18.30;99.90;;;;;;5010228;28;19917;-76
2024/05/01 10:58:25;;;;;;;;;;;18.90;99.90;;;;;;4997196;28;19929;-79
2024/05/01 11:00:51;;;;;;;;;;;18.70;99.90;;;;;;5009064;28;19928;-77
2024/05/01 11:03:17;;;;;;;;;;;19.00;99.90;;;;;;5005378;28;21085;-78
2024/05/01 11:05:42;;;;;;;;;;;19.30;99.90;;;;;;5013675;28;19921;-78
2024/05/01 11:08:17;;;;;;;;;;;19.70;99.90;;;;;;5001728;28;21901;-78
2024/05/01 11:10:43;;;;;;;;;;;20.00;99.90;;;;;;5018091;28;19929;-77
2024/05/01 11:13:09;;;;;;;;;;;19.70;99.90;;;;;;5002695;28;19927;-76
2024/05/01 11:15:34;;;;;;;;;;;19.70;99.90;;;;;;5006058;28;19921;-78
2024/05/01 11:18:02;;;;;;;;;;;19.50;99.90;;;;;;5014920;28;19925;-75
2024/05/01 11:20:27;;;;;;;;;;;19.50;99.90;;;;;;4995838;28;20125;-77
2024/05/01 11:22:53;;;;;;;;;;;19.60;99.90;;;;;;5012684;28;19936;-74
2024/05/01 11:25:18;;;;;;;;;;;19.80;99.90;;;;;;5000685;28;19921;-77
2024/05/01 11:27:44;;;;;;;;;;;19.80;99.90;;;;;;5008848;28;19917;-77
2024/05/01 11:30:11;;;;;;;;;;;19.90;99.90;;;;;;4996284;28;20276;-77
2024/05/01 11:32:37;;;;;;;;;;;19.80;99.90;;;;;;5011443;28;20008;-75
2024/05/01 11:35:03;;;;;;;;;;;20.10;99.90;;;;;;4993485;28;19968;-78
2024/05/01 11:37:28;;;;;;;;;;;20.10;99.90;;;;;;5010509;28;20043;-80
2024/05/01 11:39:54;;;;;;;;;;;20.70;99.90;;;;;;4994305;28;19917;-79
2024/05/01 11:42:20;;;;;;;;;;;20.70;99.90;;;;;;5008334;28;19937;-75
2024/05/01 11:44:45;;;;;;;;;;;21.40;99.90;;;;;;5002981;28;19979;-77
2024/05/01 11:47:11;;;;;;;;;;;21.40;99.90;;;;;;5002278;28;20512;-78
2024/05/01 11:49:36;;;;;;;;;;;21.00;99.90;;;;;;4997243;28;19931;-77
2024/05/01 11:52:02;;;;;;;;;;;21.10;99.90;;;;;;5007433;28;19925;-78
2024/05/01 11:54:28;;;;;;;;;;;20.90;99.90;;;;;;4998557;28;19921;-77
2024/05/01 11:56:53;;;;;;;;;;;20.90;99.90;;;;;;5003541;28;20461;-77
2024/05/01 11:59:19;;;;;;;;;;;20.90;99.90;;;;;;5008590;28;19921;-78
2024/05/01 12:01:45;;;;;;;;;;;21.00;99.90;;;;;;4989853;28;19929;-77
2024/05/01 12:04:11;;;;;;;;;;;21.00;99.90;;;;;;5010720;28;20443;-77
2024/05/01 12:06:37;;;;;;;;;;;21.10;99.90;;;;;;4996227;28;19944;-77
2024/05/01 12:09:04;;;;;;;;;;;21.20;99.90;;;;;;5007022;28;20349;-75
2024/05/01 12:11:29;;;;;;;;;;;21.30;99.90;;;;;;4998337;28;19932;-77
2024/05/01 12:13:55;;;;;;;;;;;20.90;99.90;;;;;;5009012;28;19923;-76
2024/05/01 12:16:21;;;;;;;;;;;20.30;99.90;;;;;;4996880;28;19917;-76
2024/05/01 12:18:48;;;;;;;;;;;20.20;99.90;;;;;;5008947;28;20557;-76
2024/05/01 12:21:14;;;;;;;;;;;20.20;99.90;;;;;;4991816;28;19928;-76
2024/05/01 12:23:40;;;;;;;;;;;19.80;99.90;;;;;;5015071;28;19917;-76
2024/05/01 12:26:10;;;;;;;;;;;19.70;99.90;;;;;;5000133;28;20008;-76
2024/05/01 12:28:36;;;;;;;;;;;19.60;99.90;;;;;;5009804;28;19921;-76
2024/05/01 12:31:02;;;;;;;;;;;19.60;99.90;;;;;;5001752;28;19925;-76
2024/05/01 12:33:34;;;;;;;;;;;19.40;99.90;;;;;;5008305;28;19921;-77
2024/05/01 12:36:00;;;;;;;;;;;19.50;99.90;;;;;;5006703;28;19921;-78
2024/05/01 12:38:26;;;;;;;;;;;19.40;99.90;;;;;;5005431;28;19983;-77
2024/05/01 12:41:08;;;;;;;;;;;19.50;99.90;;;;;;5006861;28;19921;-76
2024/05/01 12:43:37;;;;;;;;;;;19.60;99.90;;;;;;5012208;28;19921;-77
2024/05/01 12:46:02;;;;;;;;;;;19.60;99.90;;;;;;5012828;28;19932;-78
2024/05/01 12:48:38;;;;;;;;;;;19.60;99.90;;;;;;4990734;28;19921;-78
2024/05/01 12:51:07;;;;;;;;;;;19.60;99.90;;;;;;5008111;28;19943;-78
2024/05/01 12:53:32;;;;;;;;;;;19.70;99.90;;;;;;4996920;28;19979;-78
2024/05/01 12:55:59;;;;;;;;;;;19.60;99.90;;;;;;5011861;28;20397;-78
2024/05/01 12:58:26;;;;;;;;;;;19.90;99.90;;;;;;5001275;28;20190;-77
2024/05/01 13:00:51;;;;;;;;;;;20.00;99.90;;;;;;5004205;28;20652;-78
2024/05/01 13:03:17;;;;;;;;;;;19.80;99.90;;;;;;4998046;28;19930;-78
2024/05/01 13:05:45;;;;;;;;;;;19.60;99.90;;;;;;5008573;28;19928;-78
2024/05/01 13:08:30;;;;;;;;;;;19.40;99.90;;;;;;4992426;28;19921;-79
2024/05/01 13:11:16;;;;;;;;;;;19.20;99.90;;;;;;5009780;28;19932;-74
2024/05/01 13:13:43;;;;;;;;;;;19.00;99.90;;;;;;5019006;28;20301;-74
2024/05/01 13:16:28;;;;;;;;;;;18.60;99.90;;;;;;5012858;28;20015;-74
2024/05/01 13:18:54;;;;;;;;;;;18.60;99.90;;;;;;5002737;28;19921;-74
2024/05/01 13:21:20;;;;;;;;;;;18.20;99.90;;;;;;5000603;28;19975;-75
2024/05/01 13:23:46;;;;;;;;;;;18.10;99.90;;;;;;4999825;28;20079;-74
2024/05/01 13:26:30;;;;;;;;;;;18.20;99.90;;;;;;5017747;28;20820;-73
2024/05/01 13:28:56;;;;;;;;;;;17.90;99.90;;;;;;5006646;28;19917;-74
2024/05/01 13:31:24;;;;;;;;;;;17.90;99.90;;;;;;5012062;28;19920;-73
2024/05/01 13:33:51;;;;;;;;;;;18.00;99.90;;;;;;4996813;28;20469;-75
2024/05/01 13:36:16;;;;;;;;;;;17.90;99.90;;;;;;5008441;28;19913;-72
2024/05/01 13:38:42;;;;;;;;;;;18.10;99.90;;;;;;4998199;28;19928;-74
2024/05/01 13:41:08;;;;;;;;;;;18.00;99.90;;;;;;4999291;28;19956;-73
2024/05/01 13:43:35;;;;;;;;;;;18.00;99.90;;;;;;4996703;28;19925;-75
2024/05/01 13:46:01;;;;;;;;;;;18.00;99.90;;;;;;5015533;28;19967;-75
2024/05/01 13:48:35;;;;;;;;;;;18.00;99.90;;;;;;4998608;28;19921;-73
2024/05/01 13:51:02;;;;;;;;;;;17.90;99.90;;;;;;5009171;28;20171;-74
2024/05/01 13:53:28;;;;;;;;;;;17.90;99.90;;;;;;5004350;28;19925;-73
2024/05/01 13:55:58;;;;;;;;;;;17.80;99.90;;;;;;5006827;28;20666;-74
2024/05/01 13:58:23;;;;;;;;;;;17.70;99.90;;;;;;5015313;28;19913;-74
2024/05/01 14:00:49;;;;;;;;;;;17.40;99.90;;;;;;4995916;28;19921;-74
2024/05/01 14:03:27;;;;;;;;;;;17.40;99.90;;;;;;5014362;28;20325;-75
2024/05/01 14:05:53;;;;;;;;;;;17.20;99.90;;;;;;4992758;28;19928;-74
2024/05/01 14:08:21;;;;;;;;;;;17.40;99.90;;;;;;5012364;28;20631;-74
2024/05/01 14:10:46;;;;;;;;;;;17.50;99.90;;;;;;5004151;28;19925;-74
2024/05/01 14:13:32;;;;;;;;;;;17.50;99.90;;;;;;5013238;28;19971;-75